Time;durP1;ratioP1;P1;durP2;ratioP2;P2;SDS_P1;SDS_P2;PMS_P1;PMS_P2;Temp;Humidity;BMP_temperature;BMP_pressure;BME280_temperature;BME280_humidity;BME280_pressure;Samples;Min_cycle;Max_cycle;Signal;HPM_P1;HPM_P2
2022/12/13 00:01:20;;;;;;;32.50;20.55;;;;;;;;;;4986973;28;20013;-70
2022/12/13 00:03:45;;;;;;;32.45;20.50;;;;;;;;;;4986375;28;20044;-70
2022/12/13 00:06:11;;;;;;;38.10;20.98;;;;;;;;;;4986389;28;20021;-67
2022/12/13 00:08:37;;;;;;;36.70;22.13;;;;;;;;;;4987734;28;20010;-67
2022/12/13 00:11:03;;;;;;;35.22;20.90;;;;;;;;;;4988058;28;20911;-68
2022/12/13 00:13:29;;;;;;;36.10;21.20;;;;;;;;;;4989754;28;20013;-68
2022/12/13 00:15:58;;;;;;;33.50;20.58;;;;;;;;;;4985993;28;20041;-68
2022/12/13 00:18:23;;;;;;;30.80;19.00;;;;;;;;;;4987809;28;20038;-68
2022/12/13 00:20:48;;;;;;;32.13;19.00;;;;;;;;;;4987340;28;20033;-68
2022/12/13 00:23:14;;;;;;;35.22;19.58;;;;;;;;;;4986569;28;20032;-69
2022/12/13 00:25:39;;;;;;;39.97;20.15;;;;;;;;;;4986421;28;20079;-69
2022/12/13 00:28:04;;;;;;;33.15;21.33;;;;;;;;;;4987282;28;20898;-69
2022/12/13 00:30:32;;;;;;;32.67;20.98;;;;;;;;;;4987314;28;20135;-69
2022/12/13 00:32:57;;;;;;;31.08;19.27;;;;;;;;;;4987307;28;20044;-68
2022/12/13 00:35:23;;;;;;;34.50;21.80;;;;;;;;;;4986244;28;20855;-68
2022/12/13 00:37:48;;;;;;;31.38;19.30;;;;;;;;;;4986388;28;20819;-69
2022/12/13 00:40:13;;;;;;;34.15;21.02;;;;;;;;;;4981612;28;20041;-69
2022/12/13 00:42:38;;;;;;;32.38;19.13;;;;;;;;;;4986647;28;20889;-68
2022/12/13 00:45:04;;;;;;;28.88;18.20;;;;;;;;;;4983978;28;20824;-68
2022/12/13 00:47:29;;;;;;;30.42;20.45;;;;;;;;;;4977775;28;20110;-69
2022/12/13 00:49:54;;;;;;;30.48;19.52;;;;;;;;;;4987628;28;20770;-68
2022/12/13 00:52:20;;;;;;;34.97;21.08;;;;;;;;;;4985782;28;20865;-68
2022/12/13 00:54:45;;;;;;;31.58;18.27;;;;;;;;;;4974703;28;20399;-68
2022/12/13 00:57:10;;;;;;;27.98;17.27;;;;;;;;;;4974206;28;20049;-68
2022/12/13 00:59:35;;;;;;;30.40;19.60;;;;;;;;;;4974977;28;20354;-68
2022/12/13 01:02:01;;;;;;;28.90;18.63;;;;;;;;;;4986229;28;20022;-68
2022/12/13 01:04:26;;;;;;;28.80;18.92;;;;;;;;;;4984670;28;20025;-68
2022/12/13 01:06:52;;;;;;;36.45;18.85;;;;;;;;;;4986552;28;20916;-68
2022/12/13 01:09:19;;;;;;;35.17;19.08;;;;;;;;;;4985582;28;20029;-68
2022/12/13 01:11:45;;;;;;;40.83;19.30;;;;;;;;;;4986731;28;20029;-68
2022/12/13 01:14:10;;;;;;;33.58;19.70;;;;;;;;;;4976181;28;20554;-68
2022/12/13 01:16:36;;;;;;;29.40;17.67;;;;;;;;;;4983918;28;20056;-68
2022/12/13 01:19:01;;;;;;;28.45;17.15;;;;;;;;;;4985242;28;20029;-68
2022/12/13 01:21:26;;;;;;;35.35;19.58;;;;;;;;;;4979104;28;20124;-68
2022/12/13 01:23:51;;;;;;;31.80;19.63;;;;;;;;;;4984212;28;20090;-68
2022/12/13 01:26:18;;;;;;;34.55;20.60;;;;;;;;;;4985826;28;21046;-68
2022/12/13 01:28:44;;;;;;;35.72;20.40;;;;;;;;;;4984423;28;20099;-68
2022/12/13 01:31:11;;;;;;;36.58;20.67;;;;;;;;;;4986868;28;20401;-68
2022/12/13 01:33:36;;;;;;;33.88;20.63;;;;;;;;;;4984465;28;21020;-67
2022/12/13 01:36:04;;;;;;;28.17;19.38;;;;;;;;;;4984576;28;20025;-67
2022/12/13 01:38:29;;;;;;;33.03;19.23;;;;;;;;;;5009196;28;20076;-67
2022/12/13 01:40:58;;;;;;;27.15;17.40;;;;;;;;;;4995376;28;20021;-68
2022/12/13 01:43:24;;;;;;;38.03;20.48;;;;;;;;;;4984242;28;20029;-68
2022/12/13 01:45:49;;;;;;;33.45;20.02;;;;;;;;;;4998836;28;20013;-68
2022/12/13 01:48:18;;;;;;;35.47;21.08;;;;;;;;;;5004927;28;20415;-68
2022/12/13 01:50:46;;;;;;;32.92;20.30;;;;;;;;;;4992011;28;20032;-67
2022/12/13 01:53:14;;;;;;;34.70;21.23;;;;;;;;;;5015011;28;20064;-67
2022/12/13 01:55:40;;;;;;;29.67;19.02;;;;;;;;;;5034770;28;20104;-67
2022/12/13 01:58:06;;;;;;;35.05;20.98;;;;;;;;;;5024194;28;20033;-67
2022/12/13 02:00:34;;;;;;;31.67;19.90;;;;;;;;;;5010653;28;20025;-67
2022/12/13 02:02:59;;;;;;;30.05;19.08;;;;;;;;;;5023607;28;20064;-68
2022/12/13 02:05:27;;;;;;;30.10;19.45;;;;;;;;;;5008129;28;20412;-68
2022/12/13 02:07:52;;;;;;;33.60;20.75;;;;;;;;;;5008969;28;20026;-68
2022/12/13 02:10:18;;;;;;;31.75;19.00;;;;;;;;;;5024114;28;20017;-68
2022/12/13 02:12:43;;;;;;;30.27;18.85;;;;;;;;;;5029266;28;20457;-68
2022/12/13 02:15:13;;;;;;;31.13;19.17;;;;;;;;;;5028891;28;20049;-68
2022/12/13 02:17:51;;;;;;;35.58;20.50;;;;;;;;;;5028645;28;20035;-68
2022/12/13 02:20:35;;;;;;;29.70;19.02;;;;;;;;;;5019660;28;20332;-68
2022/12/13 02:23:23;;;;;;;34.03;19.85;;;;;;;;;;5006239;28;20018;-68
2022/12/13 02:26:15;;;;;;;33.45;19.17;;;;;;;;;;5012283;28;20014;-69
2022/12/13 02:28:54;;;;;;;33.75;19.15;;;;;;;;;;5003927;28;20117;-70
2022/12/13 02:31:25;;;;;;;37.65;20.80;;;;;;;;;;5019188;28;20018;-69
2022/12/13 02:33:59;;;;;;;36.45;20.52;;;;;;;;;;5020997;28;20546;-69
2022/12/13 02:36:24;;;;;;;;;;;;;;;;;;5031189;28;20026;-70
2022/12/13 02:39:02;;;;;;;32.63;17.15;;;;;;;;;;5026612;28;20013;-69
2022/12/13 02:41:33;;;;;;;30.10;19.23;;;;;;;;;;5016322;28;20018;-69
2022/12/13 02:43:58;;;;;;;33.15;20.05;;;;;;;;;;5001288;28;20018;-69
2022/12/13 02:46:25;;;;;;;38.75;21.42;;;;;;;;;;5029700;28;20028;-69
2022/12/13 02:48:51;;;;;;;30.30;18.95;;;;;;;;;;5020183;28;20053;-70
2022/12/13 02:51:18;;;;;;;38.88;22.05;;;;;;;;;;5032382;28;20068;-69
2022/12/13 02:53:44;;;;;;;30.98;19.90;;;;;;;;;;5029845;28;20056;-69
2022/12/13 02:56:09;;;;;;;34.85;20.60;;;;;;;;;;5032612;28;20052;-69
2022/12/13 02:58:36;;;;;;;32.92;21.05;;;;;;;;;;5028182;28;20036;-69
2022/12/13 03:01:20;;;;;;;29.80;19.13;;;;;;;;;;5017164;28;20092;-69
2022/12/13 03:03:45;;;;;;;;;;;;;;;;;;5015288;28;20034;-69
2022/12/13 03:06:28;;;;;;;26.95;17.73;;;;;;;;;;5024123;28;19951;-69
2022/12/13 03:09:16;;;;;;;29.33;18.10;;;;;;;;;;5015646;28;20033;-68
2022/12/13 03:14:35;;;;;;;33.60;19.95;;;;;;;;;;5024930;28;20056;-69
2022/12/13 03:17:01;;;;;;;35.40;19.60;;;;;;;;;;5030020;28;20470;-69
2022/12/13 03:19:26;;;;;;;35.40;20.63;;;;;;;;;;5029959;28;20014;-69
2022/12/13 03:21:51;;;;;;;32.83;19.45;;;;;;;;;;5029822;28;20017;-69
2022/12/13 03:24:18;;;;;;;34.10;20.33;;;;;;;;;;5026950;28;20025;-68
2022/12/13 03:26:44;;;;;;;33.33;20.15;;;;;;;;;;5032025;28;20028;-68
2022/12/13 03:29:09;;;;;;;36.25;21.13;;;;;;;;;;5026873;28;20736;-69
2022/12/13 03:31:34;;;;;;;29.10;18.10;;;;;;;;;;5025696;28;20419;-70
2022/12/13 03:34:00;;;;;;;34.30;21.45;;;;;;;;;;5025096;28;20053;-69
2022/12/13 03:36:25;;;;;;;32.53;20.33;;;;;;;;;;5016900;28;20029;-69
2022/12/13 03:38:51;;;;;;;37.67;21.17;;;;;;;;;;5014050;28;20034;-70
2022/12/13 03:41:18;;;;;;;40.92;20.83;;;;;;;;;;5028478;28;20028;-69
2022/12/13 03:43:44;;;;;;;31.75;19.98;;;;;;;;;;5015233;28;20025;-70
2022/12/13 03:46:09;;;;;;;35.88;21.33;;;;;;;;;;5028346;28;21477;-69
2022/12/13 03:48:34;;;;;;;31.52;20.42;;;;;;;;;;5027591;28;20025;-69
2022/12/13 03:51:00;;;;;;;33.38;20.52;;;;;;;;;;5017664;28;20037;-69
2022/12/13 03:53:25;;;;;;;30.63;19.65;;;;;;;;;;5030773;28;20033;-69
2022/12/13 03:55:51;;;;;;;34.17;21.52;;;;;;;;;;5020009;28;20504;-69
2022/12/13 03:58:16;;;;;;;35.85;20.13;;;;;;;;;;5033139;28;20152;-69
2022/12/13 04:00:41;;;;;;;32.58;20.65;;;;;;;;;;5018863;28;20065;-69
2022/12/13 04:03:07;;;;;;;39.28;22.58;;;;;;;;;;5015791;28;20475;-69
2022/12/13 04:05:32;;;;;;;45.67;20.85;;;;;;;;;;5020149;28;20013;-68
2022/12/13 04:07:57;;;;;;;35.15;23.00;;;;;;;;;;5031487;28;20022;-68
2022/12/13 04:10:23;;;;;;;41.17;21.85;;;;;;;;;;5030668;28;20044;-69
2022/12/13 04:15:32;;;;;;;36.53;22.48;;;;;;;;;;5014285;28;20462;-68
2022/12/13 04:17:57;;;;;;;38.47;24.60;;;;;;;;;;5013517;28;20030;-69
2022/12/13 04:20:23;;;;;;;33.75;22.45;;;;;;;;;;5032965;28;20436;-69
2022/12/13 04:22:48;;;;;;;49.63;26.38;;;;;;;;;;5025968;28;20026;-69
2022/12/13 04:25:13;;;;;;;39.78;23.77;;;;;;;;;;5031583;28;20017;-69
2022/12/13 04:27:38;;;;;;;43.00;25.65;;;;;;;;;;5031505;28;20027;-68
2022/12/13 04:30:04;;;;;;;45.80;27.67;;;;;;;;;;5029960;28;20072;-68
2022/12/13 04:32:30;;;;;;;57.92;32.00;;;;;;;;;;5020576;28;20014;-68
2022/12/13 04:34:55;;;;;;;53.05;30.38;;;;;;;;;;5030153;28;20071;-68
2022/12/13 04:37:20;;;;;;;56.03;30.13;;;;;;;;;;5028316;28;20017;-68
2022/12/13 04:39:45;;;;;;;46.25;27.02;;;;;;;;;;5024809;28;20057;-68
2022/12/13 04:42:11;;;;;;;48.65;27.50;;;;;;;;;;5027853;28;20097;-68
2022/12/13 04:44:36;;;;;;;48.85;28.00;;;;;;;;;;5028353;28;20028;-68
2022/12/13 04:47:01;;;;;;;44.58;25.80;;;;;;;;;;5010919;28;21015;-69
2022/12/13 04:49:27;;;;;;;34.78;25.00;;;;;;;;;;5016918;28;20318;-68
2022/12/13 04:51:53;;;;;;;42.15;25.42;;;;;;;;;;5015376;28;20495;-68
2022/12/13 04:54:18;;;;;;;41.20;24.67;;;;;;;;;;5021439;28;20022;-68
2022/12/13 04:56:43;;;;;;;34.63;23.83;;;;;;;;;;5014418;28;20499;-68
2022/12/13 04:59:08;;;;;;;42.55;23.95;;;;;;;;;;5013498;28;20399;-69
2022/12/13 05:01:33;;;;;;;33.95;21.60;;;;;;;;;;5017084;28;20018;-68
2022/12/13 05:04:00;;;;;;;37.97;23.40;;;;;;;;;;5019401;28;20036;-68
2022/12/13 05:06:26;;;;;;;38.80;23.77;;;;;;;;;;5028297;28;20020;-68
2022/12/13 05:08:51;;;;;;;48.97;25.17;;;;;;;;;;5029579;28;20100;-68
2022/12/13 05:11:16;;;;;;;44.05;25.90;;;;;;;;;;5029536;28;20075;-68
2022/12/13 05:13:42;;;;;;;40.58;25.58;;;;;;;;;;5015084;28;20021;-68
2022/12/13 05:16:08;;;;;;;42.85;26.65;;;;;;;;;;5027355;28;20528;-68
2022/12/13 05:18:34;;;;;;;50.22;27.40;;;;;;;;;;5022121;28;20029;-68
2022/12/13 05:21:06;;;;;;;38.78;25.75;;;;;;;;;;5009147;28;20166;-68
2022/12/13 05:23:32;;;;;;;45.17;27.45;;;;;;;;;;5018225;28;20022;-68
2022/12/13 05:25:57;;;;;;;40.67;26.98;;;;;;;;;;5030720;28;20014;-68
2022/12/13 05:28:25;;;;;;;41.67;24.90;;;;;;;;;;5011967;28;20131;-69
2022/12/13 05:30:50;;;;;;;38.67;25.25;;;;;;;;;;4997787;28;20018;-69
2022/12/13 05:33:16;;;;;;;41.67;26.48;;;;;;;;;;5014956;28;20494;-68
2022/12/13 05:35:41;;;;;;;41.15;26.05;;;;;;;;;;5003690;28;20061;-68
2022/12/13 05:38:06;;;;;;;46.35;26.77;;;;;;;;;;5021415;28;20028;-68
2022/12/13 05:40:32;;;;;;;42.03;27.30;;;;;;;;;;5021408;28;20088;-68
2022/12/13 05:42:57;;;;;;;47.28;27.63;;;;;;;;;;5013371;28;20033;-68
2022/12/13 05:45:23;;;;;;;42.47;27.70;;;;;;;;;;5009765;28;20030;-68
2022/12/13 05:47:48;;;;;;;43.63;27.00;;;;;;;;;;5017488;28;20033;-69
2022/12/13 05:50:14;;;;;;;42.38;26.35;;;;;;;;;;5023962;28;20025;-68
2022/12/13 05:52:39;;;;;;;43.03;26.77;;;;;;;;;;5030651;28;20439;-68
2022/12/13 05:55:05;;;;;;;38.58;26.15;;;;;;;;;;5031953;28;20033;-68
2022/12/13 05:57:30;;;;;;;39.47;26.52;;;;;;;;;;5012867;28;20017;-68
2022/12/13 05:59:55;;;;;;;41.03;26.50;;;;;;;;;;5010290;28;20103;-69
2022/12/13 06:02:21;;;;;;;45.13;26.55;;;;;;;;;;5019274;28;20080;-69
2022/12/13 06:04:46;;;;;;;42.17;26.35;;;;;;;;;;5018346;28;20026;-68
2022/12/13 06:07:11;;;;;;;47.47;28.33;;;;;;;;;;5013365;28;20013;-68
2022/12/13 06:09:37;;;;;;;46.13;28.88;;;;;;;;;;5017631;28;20132;-68
2022/12/13 06:12:02;;;;;;;41.90;27.15;;;;;;;;;;5028442;28;20022;-69
2022/12/13 06:14:27;;;;;;;48.60;27.95;;;;;;;;;;5013434;28;20121;-69
2022/12/13 06:16:52;;;;;;;43.22;26.67;;;;;;;;;;5021669;28;20072;-69
2022/12/13 06:19:18;;;;;;;42.17;28.83;;;;;;;;;;5027917;28;20025;-69
2022/12/13 06:21:44;;;;;;;53.85;30.10;;;;;;;;;;5027018;28;20683;-69
2022/12/13 06:24:09;;;;;;;50.70;29.15;;;;;;;;;;5012260;28;20022;-69
2022/12/13 06:26:34;;;;;;;44.80;27.85;;;;;;;;;;5006907;28;20099;-69
2022/12/13 06:29:00;;;;;;;51.63;28.98;;;;;;;;;;5011029;28;20142;-69
2022/12/13 06:31:25;;;;;;;48.45;29.95;;;;;;;;;;5016045;28;20468;-69
2022/12/13 06:33:50;;;;;;;48.38;27.35;;;;;;;;;;5020869;28;20043;-69
2022/12/13 06:36:16;;;;;;;46.10;27.42;;;;;;;;;;5008290;28;20037;-68
2022/12/13 06:38:41;;;;;;;48.05;29.45;;;;;;;;;;5007778;28;20165;-69
2022/12/13 06:41:15;;;;;;;48.72;30.05;;;;;;;;;;4992941;28;20056;-69
2022/12/13 06:43:45;;;;;;;42.28;27.77;;;;;;;;;;5003103;28;20418;-69
2022/12/13 06:46:11;;;;;;;52.55;31.10;;;;;;;;;;4989640;28;20082;-69
2022/12/13 06:48:36;;;;;;;53.15;30.75;;;;;;;;;;4990071;28;20017;-69
2022/12/13 06:51:02;;;;;;;49.92;31.23;;;;;;;;;;4991013;28;20942;-69
2022/12/13 06:53:28;;;;;;;50.13;32.53;;;;;;;;;;5002217;28;20894;-69
2022/12/13 06:55:54;;;;;;;48.80;30.77;;;;;;;;;;5016785;28;20079;-69
2022/12/13 06:58:19;;;;;;;54.00;31.55;;;;;;;;;;5018562;28;20871;-70
2022/12/13 07:00:44;;;;;;;51.65;31.90;;;;;;;;;;5002152;28;20037;-69
2022/12/13 07:03:10;;;;;;;53.10;31.98;;;;;;;;;;4986451;28;20041;-69
2022/12/13 07:05:37;;;;;;;53.72;33.60;;;;;;;;;;4997414;28;20050;-71
2022/12/13 07:08:02;;;;;;;52.75;31.23;;;;;;;;;;5002041;28;20021;-69
2022/12/13 07:10:27;;;;;;;48.20;31.88;;;;;;;;;;5003307;28;20843;-69
2022/12/13 07:12:52;;;;;;;58.88;35.13;;;;;;;;;;5001052;28;20029;-69
2022/12/13 07:15:18;;;;;;;55.42;33.30;;;;;;;;;;5019504;28;20078;-69
2022/12/13 07:17:43;;;;;;;59.00;33.80;;;;;;;;;;5023483;28;20038;-69
2022/12/13 07:20:08;;;;;;;55.38;34.90;;;;;;;;;;5025923;28;20468;-69
2022/12/13 07:22:34;;;;;;;58.58;33.78;;;;;;;;;;5026128;28;20129;-69
2022/12/13 07:25:00;;;;;;;56.55;35.88;;;;;;;;;;5022307;28;20052;-69
2022/12/13 07:27:25;;;;;;;61.15;37.05;;;;;;;;;;5024449;28;20109;-69
2022/12/13 07:29:50;;;;;;;66.03;39.65;;;;;;;;;;5017705;28;20029;-69
2022/12/13 07:32:15;;;;;;;78.68;41.92;;;;;;;;;;5022977;28;20021;-69
2022/12/13 07:34:41;;;;;;;76.38;42.72;;;;;;;;;;5013200;28;20369;-68
2022/12/13 07:37:07;;;;;;;77.55;40.70;;;;;;;;;;5009235;28;20044;-69
2022/12/13 07:39:32;;;;;;;77.00;42.85;;;;;;;;;;5007425;28;20072;-68
2022/12/13 07:41:58;;;;;;;84.90;45.70;;;;;;;;;;5018258;28;20113;-68
2022/12/13 07:44:23;;;;;;;81.78;45.50;;;;;;;;;;5021310;28;20013;-69
2022/12/13 07:46:48;;;;;;;81.32;43.63;;;;;;;;;;5020382;28;20221;-68
2022/12/13 07:49:14;;;;;;;83.22;45.97;;;;;;;;;;5006879;28;20022;-69
2022/12/13 07:51:39;;;;;;;79.15;45.80;;;;;;;;;;5016858;28;20025;-69
2022/12/13 07:54:07;;;;;;;87.80;46.67;;;;;;;;;;5003497;28;20069;-69
2022/12/13 07:56:32;;;;;;;91.30;47.13;;;;;;;;;;5016597;28;20125;-69
2022/12/13 07:58:57;;;;;;;85.68;45.30;;;;;;;;;;5008585;28;20018;-68
2022/12/13 08:01:23;;;;;;;89.65;45.80;;;;;;;;;;5008143;28;20110;-69
2022/12/13 08:03:48;;;;;;;88.00;46.17;;;;;;;;;;5010871;28;20033;-70
2022/12/13 08:06:13;;;;;;;85.15;46.83;;;;;;;;;;5013058;28;20021;-69
2022/12/13 08:08:39;;;;;;;85.47;46.15;;;;;;;;;;5013456;28;20818;-68
2022/12/13 08:11:11;;;;;;;87.55;49.53;;;;;;;;;;5009025;28;20888;-69
2022/12/13 08:13:37;;;;;;;90.47;48.92;;;;;;;;;;5018641;28;20099;-69
2022/12/13 08:16:05;;;;;;;104.57;57.55;;;;;;;;;;5015899;28;20029;-69
2022/12/13 08:18:30;;;;;;;100.22;54.38;;;;;;;;;;5012946;28;20816;-69
2022/12/13 08:20:59;;;;;;;89.15;48.22;;;;;;;;;;5012558;28;20029;-69
2022/12/13 08:23:24;;;;;;;82.43;49.00;;;;;;;;;;5013821;28;20029;-69
2022/12/13 08:25:50;;;;;;;76.72;45.53;;;;;;;;;;5013021;28;20376;-69
2022/12/13 08:28:16;;;;;;;85.85;48.25;;;;;;;;;;5013267;28;20071;-69
2022/12/13 08:30:41;;;;;;;85.05;45.60;;;;;;;;;;5010729;28;20021;-69
2022/12/13 08:33:06;;;;;;;74.35;46.38;;;;;;;;;;5007808;28;20515;-69
2022/12/13 08:35:31;;;;;;;76.13;46.45;;;;;;;;;;5012287;28;20030;-69
2022/12/13 08:37:57;;;;;;;85.85;48.72;;;;;;;;;;5007937;28;20029;-69
2022/12/13 08:40:22;;;;;;;86.15;47.28;;;;;;;;;;5016006;28;20734;-69
2022/12/13 08:42:48;;;;;;;81.95;45.67;;;;;;;;;;5008184;28;20105;-69
2022/12/13 08:45:13;;;;;;;77.60;47.28;;;;;;;;;;5012784;28;20045;-69
2022/12/13 08:47:38;;;;;;;78.80;44.80;;;;;;;;;;5017977;28;20099;-69
2022/12/13 08:50:04;;;;;;;75.43;46.10;;;;;;;;;;5016701;28;20049;-68
2022/12/13 08:52:33;;;;;;;72.57;43.70;;;;;;;;;;5014086;28;20041;-69
2022/12/13 08:54:59;;;;;;;82.10;48.17;;;;;;;;;;5014018;28;20108;-68
2022/12/13 08:57:24;;;;;;;78.53;44.08;;;;;;;;;;5014284;28;20044;-69
2022/12/13 08:59:49;;;;;;;77.72;42.97;;;;;;;;;;5014357;28;20053;-69
2022/12/13 09:02:15;;;;;;;68.10;42.55;;;;;;;;;;5013991;28;20460;-69
2022/12/13 09:04:41;;;;;;;71.55;43.75;;;;;;;;;;5014880;28;20025;-69
2022/12/13 09:07:06;;;;;;;68.72;42.80;;;;;;;;;;5017180;28;20021;-69
2022/12/13 09:09:31;;;;;;;70.93;42.92;;;;;;;;;;5014793;28;20110;-69
2022/12/13 09:11:57;;;;;;;84.30;44.03;;;;;;;;;;5017604;28;20388;-69
2022/12/13 09:14:22;;;;;;;69.57;43.20;;;;;;;;;;5008213;28;20022;-68
2022/12/13 09:16:48;;;;;;;77.07;45.97;;;;;;;;;;4998611;28;20034;-69
2022/12/13 09:19:14;;;;;;;78.93;46.08;;;;;;;;;;5008905;28;20052;-69
2022/12/13 09:21:39;;;;;;;76.75;45.75;;;;;;;;;;5001919;28;20033;-68
2022/12/13 09:24:04;;;;;;;72.53;45.38;;;;;;;;;;5010269;28;20088;-69
2022/12/13 09:26:29;;;;;;;78.28;45.25;;;;;;;;;;5018279;28;20051;-69
2022/12/13 09:28:55;;;;;;;79.03;45.80;;;;;;;;;;5007809;28;20475;-69
2022/12/13 09:31:20;;;;;;;73.40;46.42;;;;;;;;;;5001083;28;20025;-69
2022/12/13 09:33:46;;;;;;;78.63;45.58;;;;;;;;;;5003500;28;20047;-68
2022/12/13 09:36:12;;;;;;;82.00;45.88;;;;;;;;;;5005929;28;20025;-69
2022/12/13 09:38:38;;;;;;;77.72;44.20;;;;;;;;;;4998575;28;20029;-68
2022/12/13 09:41:25;;;;;;;73.55;43.60;;;;;;;;;;4999057;28;20029;-69
2022/12/13 09:44:00;;;;;;;70.10;40.90;;;;;;;;;;4980924;28;20750;-69
2022/12/13 09:46:28;;;;;;;69.20;43.55;;;;;;;;;;4994668;28;20029;-69
2022/12/13 09:48:54;;;;;;;66.40;42.53;;;;;;;;;;4978448;28;20037;-68
2022/12/13 09:51:19;;;;;;;65.75;40.10;;;;;;;;;;4980642;28;20026;-69
2022/12/13 09:53:47;;;;;;;65.47;41.10;;;;;;;;;;4977695;28;20896;-68
2022/12/13 09:56:12;;;;;;;66.57;42.00;;;;;;;;;;4989195;28;20113;-68
2022/12/13 09:58:37;;;;;;;63.35;40.25;;;;;;;;;;4993777;28;20036;-69
2022/12/13 10:01:04;;;;;;;69.97;41.40;;;;;;;;;;4994733;28;20523;-68
2022/12/13 10:03:29;;;;;;;76.82;43.90;;;;;;;;;;4991191;28;20022;-68
2022/12/13 10:05:54;;;;;;;72.43;42.75;;;;;;;;;;5007315;28;20076;-68
2022/12/13 10:08:21;;;;;;;61.88;40.55;;;;;;;;;;5002580;28;20101;-70
2022/12/13 10:10:48;;;;;;;66.35;40.97;;;;;;;;;;4995311;28;20033;-68
2022/12/13 10:13:22;;;;;;;59.28;38.38;;;;;;;;;;5008600;28;20047;-68
2022/12/13 10:15:53;;;;;;;63.30;38.03;;;;;;;;;;5001666;28;20046;-68
2022/12/13 10:18:32;;;;;;;57.78;36.47;;;;;;;;;;5005100;28;20063;-69
2022/12/13 10:20:58;;;;;;;59.63;37.00;;;;;;;;;;5006029;28;20029;-68
2022/12/13 10:23:23;;;;;;;57.45;36.88;;;;;;;;;;5004955;28;20061;-69
2022/12/13 10:25:53;;;;;;;62.63;37.90;;;;;;;;;;5017919;28;20808;-68
2022/12/13 10:28:23;;;;;;;60.95;35.92;;;;;;;;;;5002197;28;20866;-69
2022/12/13 10:30:49;;;;;;;60.80;36.35;;;;;;;;;;4993057;28;20040;-68
2022/12/13 10:33:19;;;;;;;54.00;34.85;;;;;;;;;;4998945;28;20057;-68
2022/12/13 10:35:59;;;;;;;57.10;35.47;;;;;;;;;;4998038;28;20033;-69
2022/12/13 10:38:26;;;;;;;56.97;36.50;;;;;;;;;;4996469;28;20028;-69
2022/12/13 10:40:51;;;;;;;52.95;35.15;;;;;;;;;;4997151;28;20040;-69
2022/12/13 10:43:17;;;;;;;65.25;34.67;;;;;;;;;;4992049;28;20033;-68
2022/12/13 10:46:10;;;;;;;59.78;34.88;;;;;;;;;;4993293;28;20046;-69
2022/12/13 10:48:49;;;;;;;57.53;35.70;;;;;;;;;;4997379;28;20148;-69
2022/12/13 10:51:19;;;;;;;54.40;33.45;;;;;;;;;;5004042;28;20025;-69
2022/12/13 10:53:50;;;;;;;54.33;38.08;;;;;;;;;;5009568;28;20022;-68
2022/12/13 10:56:16;;;;;;;55.15;32.50;;;;;;;;;;5008753;28;20029;-69
2022/12/13 10:58:42;;;;;;;48.08;31.35;;;;;;;;;;5006628;28;20021;-68
2022/12/13 11:01:09;;;;;;;49.90;33.20;;;;;;;;;;5012995;28;20547;-68
2022/12/13 11:03:35;;;;;;;55.58;35.33;;;;;;;;;;5004125;28;20026;-68
2022/12/13 11:06:12;;;;;;;55.42;34.00;;;;;;;;;;5006557;28;20067;-68
2022/12/13 11:08:38;;;;;;;53.13;34.55;;;;;;;;;;5005490;28;20029;-68
2022/12/13 11:11:04;;;;;;;53.22;28.85;;;;;;;;;;5013211;28;20415;-68
2022/12/13 11:13:32;;;;;;;45.25;30.30;;;;;;;;;;5014486;28;20021;-68
2022/12/13 11:15:57;;;;;;;47.60;29.73;;;;;;;;;;5000876;28;20034;-68
2022/12/13 11:18:24;;;;;;;44.90;27.73;;;;;;;;;;5003845;28;20033;-68
2022/12/13 11:20:54;;;;;;;47.58;28.33;;;;;;;;;;5005035;28;20032;-68
2022/12/13 11:23:25;;;;;;;42.65;27.40;;;;;;;;;;4997049;28;20026;-68
2022/12/13 11:25:54;;;;;;;36.65;26.23;;;;;;;;;;5001067;28;20096;-68
2022/12/13 11:28:26;;;;;;;36.85;24.65;;;;;;;;;;4997617;28;20044;-68
2022/12/13 11:30:52;;;;;;;40.72;26.48;;;;;;;;;;5011131;28;20469;-68
2022/12/13 11:33:26;;;;;;;38.80;26.35;;;;;;;;;;5020090;28;20025;-67
2022/12/13 11:35:51;;;;;;;;;;;;;;;;;;5005129;28;20029;-68
2022/12/13 11:38:22;;;;;;;41.35;25.90;;;;;;;;;;5020771;28;19920;-68
2022/12/13 11:40:51;;;;;;;45.45;25.83;;;;;;;;;;5019620;28;20467;-68
2022/12/13 11:43:25;;;;;;;40.58;25.95;;;;;;;;;;5023981;28;20021;-68
2022/12/13 11:45:54;;;;;;;43.03;25.27;;;;;;;;;;5017219;28;20030;-68
2022/12/13 11:48:19;;;;;;;40.38;25.33;;;;;;;;;;5020740;28;20021;-68
2022/12/13 11:50:47;;;;;;;38.35;24.60;;;;;;;;;;5024290;28;20048;-68
2022/12/13 11:53:12;;;;;;;36.22;22.95;;;;;;;;;;5030261;28;20368;-68
2022/12/13 11:55:43;;;;;;;36.78;24.13;;;;;;;;;;5029303;28;20029;-68
2022/12/13 11:58:08;;;;;;;36.28;23.90;;;;;;;;;;5027397;28;20416;-68
2022/12/13 12:00:46;;;;;;;35.75;22.15;;;;;;;;;;5026990;28;20120;-68
2022/12/13 12:03:16;;;;;;;30.88;22.83;;;;;;;;;;5018169;28;20479;-68
2022/12/13 12:05:48;;;;;;;39.67;23.35;;;;;;;;;;5031751;28;20021;-68
2022/12/13 12:08:14;;;;;;;34.03;23.45;;;;;;;;;;5024061;28;20111;-68
2022/12/13 12:10:39;;;;;;;33.47;22.75;;;;;;;;;;5003932;28;21598;-68
2022/12/13 12:13:13;;;;;;;35.20;23.95;;;;;;;;;;5011873;28;20064;-68
2022/12/13 12:16:01;;;;;;;38.42;23.55;;;;;;;;;;5002275;28;20030;-68
2022/12/13 12:18:27;;;;;;;36.42;22.63;;;;;;;;;;4979163;28;20046;-68
2022/12/13 12:21:15;;;;;;;37.45;22.92;;;;;;;;;;5004441;28;20056;-67
2022/12/13 12:23:50;;;;;;;33.72;22.30;;;;;;;;;;4998577;28;20048;-67
2022/12/13 12:26:16;;;;;;;33.28;21.27;;;;;;;;;;5010510;28;20017;-67
2022/12/13 12:28:50;;;;;;;34.25;22.35;;;;;;;;;;5015155;28;20104;-67
2022/12/13 12:31:17;;;;;;;35.83;22.63;;;;;;;;;;5012701;28;20084;-68
2022/12/13 12:33:50;;;;;;;36.88;22.33;;;;;;;;;;5010348;28;20908;-67
2022/12/13 12:36:33;;;;;;;33.45;21.60;;;;;;;;;;5016300;28;20120;-67
2022/12/13 12:39:15;;;;;;;37.08;22.92;;;;;;;;;;5002237;28;20021;-68
2022/12/13 12:41:46;;;;;;;42.13;23.35;;;;;;;;;;5006687;28;20024;-68
2022/12/13 12:44:18;;;;;;;35.40;23.27;;;;;;;;;;5006858;28;20022;-68
2022/12/13 12:46:49;;;;;;;38.30;22.38;;;;;;;;;;5003151;28;20075;-68
2022/12/13 12:49:23;;;;;;;35.00;21.15;;;;;;;;;;5003706;28;20022;-68
2022/12/13 12:52:09;;;;;;;35.00;21.75;;;;;;;;;;5008597;28;20269;-68
2022/12/13 12:54:34;;;;;;;33.90;22.23;;;;;;;;;;5006126;28;20025;-68
2022/12/13 12:57:08;;;;;;;36.67;22.97;;;;;;;;;;5004786;28;20030;-67
2022/12/13 12:59:41;;;;;;;36.30;22.33;;;;;;;;;;5009990;28;20272;-67
2022/12/13 13:02:29;;;;;;;33.07;22.80;;;;;;;;;;5012155;28;20031;-67
2022/12/13 13:04:58;;;;;;;35.15;23.38;;;;;;;;;;5003888;28;20279;-68
2022/12/13 13:07:23;;;;;;;39.17;23.73;;;;;;;;;;5008548;28;20024;-68
2022/12/13 13:09:49;;;;;;;40.50;22.95;;;;;;;;;;5014202;28;20022;-68
2022/12/13 13:12:14;;;;;;;36.92;23.48;;;;;;;;;;5013768;28;20387;-68
2022/12/13 13:14:41;;;;;;;36.15;23.20;;;;;;;;;;4998681;28;20038;-67
2022/12/13 13:17:15;;;;;;;30.80;22.17;;;;;;;;;;5007892;28;20087;-67
2022/12/13 13:19:41;;;;;;;;;;;;;;;;;;5009210;28;20021;-68
2022/12/13 13:22:25;;;;;;;32.92;21.88;;;;;;;;;;5008314;28;19912;-68
2022/12/13 13:24:59;;;;;;;34.97;22.83;;;;;;;;;;5002037;28;20033;-68
2022/12/13 13:27:31;;;;;;;31.05;20.80;;;;;;;;;;5004521;28;20033;-68
2022/12/13 13:30:15;;;;;;;31.73;21.75;;;;;;;;;;5010158;28;20029;-68
2022/12/13 13:32:41;;;;;;;36.67;23.27;;;;;;;;;;4994188;28;20124;-67
2022/12/13 13:35:25;;;;;;;34.38;22.65;;;;;;;;;;4973766;28;20037;-68
2022/12/13 13:37:50;;;;;;;33.90;23.30;;;;;;;;;;4987187;28;20028;-67
2022/12/13 13:40:35;;;;;;;34.28;20.95;;;;;;;;;;4984096;28;20027;-67
2022/12/13 13:43:03;;;;;;;36.25;21.95;;;;;;;;;;4985564;28;20013;-67
2022/12/13 13:45:30;;;;;;;34.08;21.50;;;;;;;;;;4981551;28;20021;-67
2022/12/13 13:48:09;;;;;;;34.15;20.70;;;;;;;;;;4988033;28;20082;-67
2022/12/13 13:50:52;;;;;;;36.20;22.40;;;;;;;;;;4986475;28;20018;-72
2022/12/13 13:53:35;;;;;;;33.30;21.55;;;;;;;;;;4987754;28;20021;-68
2022/12/13 13:56:30;;;;;;;33.20;21.15;;;;;;;;;;4984282;28;20059;-67
2022/12/13 13:59:01;;;;;;;37.58;22.55;;;;;;;;;;4951824;28;20047;-67
2022/12/13 14:01:45;;;;;;;36.13;22.35;;;;;;;;;;5014101;28;20419;-67
2022/12/13 14:04:10;;;;;;;34.13;21.75;;;;;;;;;;5014283;28;20025;-67
2022/12/13 14:06:40;;;;;;;34.38;21.85;;;;;;;;;;5004651;28;20426;-67
2022/12/13 14:09:24;;;;;;;32.33;21.80;;;;;;;;;;5005525;28;20030;-68
2022/12/13 14:11:52;;;;;;;34.17;22.40;;;;;;;;;;5003914;28;20952;-67
2022/12/13 14:14:29;;;;;;;29.67;20.83;;;;;;;;;;5005544;28;20617;-67
2022/12/13 14:17:09;;;;;;;31.73;20.80;;;;;;;;;;5009056;28;20080;-67
2022/12/13 14:19:37;;;;;;;32.75;21.55;;;;;;;;;;5011480;28;20140;-68
2022/12/13 14:22:02;;;;;;;33.40;22.20;;;;;;;;;;5007855;28;20029;-67
2022/12/13 14:24:46;;;;;;;35.28;20.23;;;;;;;;;;5004170;28;20463;-67
2022/12/13 14:27:18;;;;;;;31.33;19.73;;;;;;;;;;5001748;28;20551;-67
2022/12/13 14:29:44;;;;;;;29.08;20.17;;;;;;;;;;5012656;28;20117;-67